createdAt,value
2022-12-19T00:00:34.209Z,0.04
2022-12-19T00:03:21.972Z,-0.03
2022-12-19T00:06:09.960Z,-0.01
2022-12-19T00:09:00.575Z,-0.11
2022-12-19T00:11:50.361Z,0.06
2022-12-19T00:14:38.143Z,0.11
2022-12-19T00:17:25.821Z,0.14
2022-12-19T00:20:13.570Z,-0.11
2022-12-19T00:23:05.347Z,0.13
2022-12-19T00:25:56.031Z,0.09
2022-12-19T00:28:46.658Z,0.09
2022-12-19T00:31:37.034Z,0.09
2022-12-19T00:34:27.851Z,0.12
2022-12-19T00:37:15.657Z,-0.05
2022-12-19T00:40:03.496Z,-0.04
2022-12-19T00:42:53.633Z,-0.24
2022-12-19T00:45:41.700Z,-0.09
2022-12-19T00:48:31.876Z,-0.03
2022-12-19T00:51:22.158Z,-0.14
2022-12-19T00:54:12.236Z,-0.10
2022-12-19T00:57:00.760Z,-0.04
2022-12-19T00:59:48.655Z,-0.09
2022-12-19T01:02:36.534Z,-0.02
2022-12-19T01:05:24.479Z,0.02
2022-12-19T01:08:12.688Z,-0.13
2022-12-19T01:11:03.313Z,-0.09
2022-12-19T01:13:50.838Z,-0.17
2022-12-19T01:16:38.826Z,-0.06
2022-12-19T01:19:30.239Z,-0.13
2022-12-19T01:22:29.007Z,-0.01
2022-12-19T01:25:21.393Z,-0.04
2022-12-19T01:28:13.856Z,-0.01
2022-12-19T01:31:06.071Z,-0.01
2022-12-19T01:33:55.482Z,0.06
2022-12-19T01:36:43.878Z,-0.18
2022-12-19T01:39:31.587Z,0.03
2022-12-19T01:42:24.151Z,0.05
2022-12-19T01:45:30.389Z,0.02
2022-12-19T01:48:28.673Z,-0.05
2022-12-19T01:51:24.095Z,-0.05
2022-12-19T01:54:16.113Z,0.09
2022-12-19T01:57:09.128Z,0.14
2022-12-19T02:00:00.182Z,0.25
2022-12-19T02:03:02.122Z,0.19
2022-12-19T02:05:50.441Z,0.02
2022-12-19T02:08:44.924Z,0.35
2022-12-19T02:11:32.702Z,0.16
2022-12-19T02:14:21.103Z,0.12
2022-12-19T02:17:24.415Z,0.11
2022-12-19T02:20:46.928Z,0.00
2022-12-19T02:23:49.744Z,0.08
2022-12-19T02:27:08.477Z,0.19
2022-12-19T02:30:17.924Z,0.23
2022-12-19T02:33:20.595Z,0.12
2022-12-19T02:36:19.009Z,0.09
2022-12-19T02:39:12.376Z,0.28
2022-12-19T02:42:02.069Z,0.13
2022-12-19T02:44:52.589Z,0.03
2022-12-19T02:47:40.835Z,0.09
2022-12-19T02:50:37.206Z,0.00
2022-12-19T02:53:25.102Z,-0.17
2022-12-19T02:56:33.950Z,0.07
2022-12-19T02:59:40.641Z,0.27
2022-12-19T03:03:00.666Z,0.14
2022-12-19T03:06:14.564Z,-0.02
2022-12-19T03:09:07.200Z,0.17
2022-12-19T03:12:24.213Z,0.35
2022-12-19T03:15:13.790Z,0.21
2022-12-19T03:18:02.293Z,0.22
2022-12-19T03:21:11.475Z,0.21
2022-12-19T03:23:59.603Z,0.19
2022-12-19T03:26:56.796Z,0.27
2022-12-19T03:29:54.231Z,0.32
2022-12-19T03:32:45.696Z,0.24
2022-12-19T03:35:39.782Z,0.11
2022-12-19T03:38:32.329Z,0.09
2022-12-19T03:41:45.303Z,0.23
2022-12-19T03:44:37.225Z,0.18
2022-12-19T03:47:35.627Z,0.27
2022-12-19T03:50:25.658Z,0.34
2022-12-19T03:53:28.312Z,0.35
2022-12-19T03:56:31.810Z,0.16
2022-12-19T03:59:41.421Z,0.31
2022-12-19T04:02:32.800Z,0.24
2022-12-19T04:05:26.218Z,0.14
2022-12-19T04:08:15.328Z,0.16
2022-12-19T04:11:09.441Z,0.27
2022-12-19T04:14:04.176Z,0.06
2022-12-19T04:17:01.160Z,0.25
2022-12-19T04:19:56.014Z,0.28
2022-12-19T04:22:43.643Z,0.37
2022-12-19T04:25:35.814Z,0.31
2022-12-19T04:28:36.718Z,0.22
2022-12-19T04:31:24.978Z,0.37
2022-12-19T04:34:12.816Z,0.43
2022-12-19T04:37:04.089Z,0.31
2022-12-19T04:39:51.791Z,0.40
2022-12-19T04:42:39.411Z,0.27
2022-12-19T04:45:27.036Z,0.21
2022-12-19T04:48:21.165Z,0.27
2022-12-19T04:51:08.917Z,0.05
2022-12-19T04:53:56.687Z,0.22
2022-12-19T04:56:44.408Z,0.19
2022-12-19T04:59:32.327Z,-0.09
2022-12-19T05:02:20.172Z,0.16
2022-12-19T05:05:08.466Z,0.23
2022-12-19T05:08:01.874Z,0.38
2022-12-19T05:10:49.761Z,0.19
2022-12-19T05:13:46.251Z,0.23
2022-12-19T05:16:33.980Z,0.21
2022-12-19T05:19:25.027Z,0.30
2022-12-19T05:22:17.475Z,0.18
2022-12-19T05:25:05.644Z,0.32
2022-12-19T05:27:53.296Z,0.28
2022-12-19T05:30:40.963Z,0.34
2022-12-19T05:33:28.588Z,0.21
2022-12-19T05:36:17.776Z,0.04
2022-12-19T05:39:05.631Z,0.20
2022-12-19T05:41:53.272Z,0.28
2022-12-19T05:44:40.995Z,0.32
2022-12-19T05:47:28.707Z,0.26
2022-12-19T05:50:18.519Z,0.32
2022-12-19T05:53:11.689Z,0.06
2022-12-19T05:56:08.686Z,0.26
2022-12-19T05:58:58.935Z,0.27
2022-12-19T06:01:47.054Z,0.47
2022-12-19T06:04:40.331Z,0.42
2022-12-19T06:07:27.992Z,0.49
2022-12-19T06:10:15.719Z,0.41
2022-12-19T06:13:03.600Z,0.16
2022-12-19T06:15:51.232Z,0.40
2022-12-19T06:18:44.256Z,0.27
2022-12-19T06:21:32.747Z,0.28
2022-12-19T06:24:21.740Z,0.23
2022-12-19T06:27:09.356Z,0.38
2022-12-19T06:29:57.123Z,0.43
2022-12-19T06:32:44.725Z,0.44
2022-12-19T06:35:32.533Z,0.27
2022-12-19T06:38:20.161Z,0.35
2022-12-19T06:41:28.137Z,0.48
2022-12-19T06:44:17.528Z,0.47
2022-12-19T06:47:05.199Z,0.39
2022-12-19T06:49:54.135Z,0.52
2022-12-19T06:52:41.924Z,0.61
2022-12-19T06:55:32.466Z,0.35
2022-12-19T06:58:24.079Z,0.48
2022-12-19T07:01:31.064Z,0.42
2022-12-19T07:04:29.801Z,0.35
2022-12-19T07:07:17.477Z,0.54
2022-12-19T07:10:06.261Z,0.55
2022-12-19T07:12:53.836Z,0.51
2022-12-19T07:15:42.147Z,0.62
2022-12-19T07:18:34.420Z,0.60
2022-12-19T07:21:22.612Z,0.74
2022-12-19T07:24:12.098Z,0.69
2022-12-19T07:26:59.899Z,0.73
2022-12-19T07:29:47.495Z,0.68
2022-12-19T07:32:35.267Z,0.56
2022-12-19T07:35:23.441Z,0.67
2022-12-19T07:38:11.033Z,0.64
2022-12-19T07:41:01.927Z,0.63
2022-12-19T07:43:49.712Z,0.72
2022-12-19T07:46:37.382Z,0.77
2022-12-19T07:49:25.122Z,0.77
2022-12-19T07:52:12.825Z,0.80
2022-12-19T07:55:00.556Z,0.79
2022-12-19T07:57:48.260Z,0.85
2022-12-19T08:00:36.474Z,0.82
2022-12-19T08:03:25.151Z,0.84
2022-12-19T08:06:18.065Z,0.95
2022-12-19T08:09:17.044Z,0.85
2022-12-19T08:12:05.003Z,1.01
2022-12-19T08:14:56.971Z,1.07
2022-12-19T08:17:45.187Z,1.14
2022-12-19T08:20:32.875Z,0.89
2022-12-19T08:23:23.807Z,1.14
2022-12-19T08:26:13.691Z,1.04
2022-12-19T08:29:01.477Z,1.18
2022-12-19T08:31:49.510Z,1.00
2022-12-19T08:34:37.294Z,0.99
2022-12-19T08:37:24.906Z,1.11
2022-12-19T08:40:13.069Z,1.08
2022-12-19T08:43:01.230Z,1.07
2022-12-19T08:45:52.156Z,1.09
2022-12-19T08:48:39.850Z,1.11
2022-12-19T08:51:27.515Z,1.09
2022-12-19T08:54:15.523Z,1.00
2022-12-19T08:57:03.332Z,1.05
2022-12-19T08:59:50.928Z,1.06
2022-12-19T09:02:40.010Z,1.13
2022-12-19T09:06:03.332Z,1.18
2022-12-19T09:08:36.365Z,1.34
2022-12-19T09:11:23.960Z,1.35
2022-12-19T09:14:11.740Z,1.27
2022-12-19T09:16:59.332Z,1.23
2022-12-19T09:19:48.531Z,1.50
2022-12-19T09:22:36.195Z,1.65
2022-12-19T09:25:24.011Z,1.68
2022-12-19T09:28:27.319Z,1.80
2022-12-19T09:31:18.075Z,1.79
2022-12-19T09:34:06.212Z,1.65
2022-12-19T09:36:53.949Z,1.84
2022-12-19T09:39:41.885Z,1.84
2022-12-19T09:42:47.645Z,1.94
2022-12-19T09:45:47.990Z,1.78
2022-12-19T09:48:35.628Z,1.93
2022-12-19T09:51:42.000Z,1.91
2022-12-19T09:54:44.945Z,1.74
2022-12-19T09:57:56.813Z,1.86
2022-12-19T10:00:49.373Z,1.73
2022-12-19T10:03:50.691Z,1.95
2022-12-19T10:07:13.026Z,2.08
2022-12-19T10:12:35.144Z,2.11
2022-12-19T10:13:32.792Z,2.44
2022-12-19T10:16:39.586Z,2.68
2022-12-19T10:19:47.373Z,2.62
2022-12-19T10:22:37.761Z,2.55
2022-12-19T10:25:46.808Z,2.62
2022-12-19T10:28:58.818Z,2.71
2022-12-19T10:32:21.150Z,2.64
2022-12-19T10:35:19.775Z,2.54
2022-12-19T10:38:11.695Z,2.17
2022-12-19T10:41:28.287Z,2.38
2022-12-19T10:44:16.155Z,2.34
2022-12-19T10:47:03.938Z,2.46
2022-12-19T10:49:52.437Z,2.53
2022-12-19T10:52:52.616Z,2.68
2022-12-19T10:55:52.370Z,2.79
2022-12-19T10:58:44.491Z,2.59
2022-12-19T11:01:36.703Z,2.77
2022-12-19T11:04:31.959Z,2.79
2022-12-19T11:07:22.037Z,2.93
2022-12-19T11:11:35.103Z,2.82
2022-12-19T11:16:56.134Z,2.69
2022-12-19T11:18:25.388Z,2.67
2022-12-19T11:29:17.074Z,2.60
2022-12-19T11:29:54.948Z,2.75
2022-12-19T11:30:38.371Z,2.61
2022-12-19T11:33:18.855Z,2.81
2022-12-19T11:36:07.054Z,2.66
2022-12-19T11:38:55.417Z,2.82
2022-12-19T11:41:51.605Z,3.14
2022-12-19T11:44:48.584Z,2.86
2022-12-19T11:47:46.071Z,2.90
2022-12-19T11:50:39.640Z,3.07
2022-12-19T11:53:34.854Z,2.94
2022-12-19T11:56:25.539Z,2.93
2022-12-19T12:02:47.175Z,2.96
2022-12-19T12:05:43.314Z,2.97
2022-12-19T12:11:02.025Z,3.03
2022-12-19T12:17:24.392Z,2.93
2022-12-19T12:31:02.481Z,3.02
2022-12-19T12:31:06.910Z,2.97
2022-12-19T12:31:23.145Z,2.82
2022-12-19T12:31:50.446Z,2.96
2022-12-19T12:32:02.052Z,2.89
2022-12-19T12:35:43.570Z,2.61
2022-12-19T12:37:51.093Z,2.68
2022-12-19T12:39:25.415Z,2.73
2022-12-19T12:42:53.982Z,2.75
2022-12-19T12:45:43.286Z,2.84
2022-12-19T12:48:37.801Z,2.92
2022-12-19T12:51:27.086Z,2.70
2022-12-19T12:54:16.411Z,2.63
2022-12-19T12:57:04.347Z,2.52
2022-12-19T13:00:26.213Z,2.61
2022-12-19T13:03:18.318Z,2.33
2022-12-19T13:06:21.421Z,2.43
2022-12-19T13:09:09.073Z,2.48
2022-12-19T13:12:15.143Z,2.34
2022-12-19T13:15:27.765Z,2.32
2022-12-19T13:18:38.195Z,2.22
2022-12-19T13:21:25.973Z,2.37
2022-12-19T13:24:21.448Z,2.33
2022-12-19T13:27:37.855Z,2.34
2022-12-19T13:30:25.802Z,2.28
2022-12-19T13:33:13.656Z,2.36
2022-12-19T13:39:51.773Z,2.18
2022-12-19T13:40:00.639Z,2.17
2022-12-19T13:43:10.019Z,2.03
2022-12-19T13:46:27.306Z,2.13
2022-12-19T13:49:39.930Z,2.16
2022-12-19T13:52:27.700Z,1.97
2022-12-19T13:55:15.499Z,1.97
2022-12-19T13:58:05.285Z,1.83
2022-12-19T14:00:55.981Z,1.82
2022-12-19T14:03:46.881Z,1.60
2022-12-19T14:07:05.198Z,1.53
2022-12-19T14:11:29.041Z,1.46
2022-12-19T14:13:55.680Z,1.38
2022-12-19T14:16:43.508Z,1.32
2022-12-19T14:19:39.419Z,1.25
2022-12-19T14:22:27.333Z,1.13
2022-12-19T14:26:14.444Z,1.19
2022-12-19T14:28:42.573Z,1.20
2022-12-19T14:31:33.249Z,1.06
2022-12-19T14:39:22.318Z,1.01
2022-12-19T14:41:07.470Z,0.87
2022-12-19T14:51:51.418Z,0.74
2022-12-19T14:52:08.452Z,0.79
2022-12-19T14:54:26.285Z,0.80
2022-12-19T14:54:37.228Z,0.84
2022-12-19T14:56:59.715Z,0.76
2022-12-19T14:59:48.996Z,0.61
2022-12-19T15:02:39.596Z,0.57
2022-12-19T15:05:28.530Z,0.61
2022-12-19T15:10:58.073Z,0.51
2022-12-19T15:12:39.388Z,0.53
2022-12-19T15:15:24.919Z,0.53
2022-12-19T15:18:34.458Z,0.40
2022-12-19T15:21:22.395Z,0.43
2022-12-19T15:24:10.218Z,0.10
2022-12-19T15:26:57.832Z,0.26
2022-12-19T15:29:45.841Z,0.25
2022-12-19T15:32:33.395Z,-0.02
2022-12-19T15:35:21.119Z,0.03
2022-12-19T15:38:09.893Z,0.03
2022-12-19T15:40:57.569Z,0.04
2022-12-19T15:46:57.915Z,-0.03
2022-12-19T15:49:46.409Z,-0.09
2022-12-19T15:52:39.264Z,-0.22
2022-12-19T15:55:40.085Z,-0.21
2022-12-19T15:58:28.786Z,-0.24
2022-12-19T16:01:16.648Z,-0.33
2022-12-19T16:04:04.796Z,-0.29
2022-12-19T16:06:52.931Z,-0.36
2022-12-19T16:09:40.634Z,-0.36
2022-12-19T16:12:35.697Z,-0.41
2022-12-19T16:15:29.780Z,-0.24
2022-12-19T16:18:19.892Z,-0.25
2022-12-19T16:21:09.945Z,-0.18
2022-12-19T16:23:57.509Z,-0.30
2022-12-19T16:26:51.531Z,-0.30
2022-12-19T16:29:41.854Z,-0.36
2022-12-19T16:32:29.777Z,-0.41
2022-12-19T16:35:40.336Z,-0.42
2022-12-19T16:38:28.670Z,-0.32
2022-12-19T16:41:23.780Z,-0.59
2022-12-19T16:44:23.990Z,-0.53
2022-12-19T16:47:15.960Z,-0.52
2022-12-19T16:50:17.832Z,-0.74
2022-12-19T16:53:05.620Z,-0.52
2022-12-19T16:55:55.639Z,-0.58
2022-12-19T16:58:43.538Z,-0.61
2022-12-19T17:01:31.486Z,-0.76
2022-12-19T17:04:22.676Z,-0.64
2022-12-19T17:07:11.243Z,-0.74
2022-12-19T17:09:58.866Z,-0.69
2022-12-19T17:12:48.206Z,-0.70
2022-12-19T17:15:39.070Z,-0.75
2022-12-19T17:18:36.082Z,-0.80
2022-12-19T17:21:26.129Z,-0.84
2022-12-19T17:24:17.670Z,-0.82
2022-12-19T17:27:06.226Z,-0.98
2022-12-19T17:29:54.027Z,-0.91
2022-12-19T17:32:42.051Z,-1.16
2022-12-19T17:35:34.399Z,-1.00
2022-12-19T17:38:22.025Z,-1.00
2022-12-19T17:41:19.295Z,-1.22
2022-12-19T17:44:07.025Z,-0.96
2022-12-19T17:46:54.838Z,-1.06
2022-12-19T17:49:42.990Z,-1.09
2022-12-19T17:52:36.375Z,-1.03
2022-12-19T17:55:27.773Z,-1.10
2022-12-19T17:58:17.129Z,-1.10
2022-12-19T18:01:04.885Z,-1.10
2022-12-19T18:03:54.074Z,-1.08
2022-12-19T18:06:42.609Z,-1.16
2022-12-19T18:09:31.415Z,-1.15
2022-12-19T18:12:19.606Z,-1.28
2022-12-19T18:15:11.407Z,-1.24
2022-12-19T18:17:59.143Z,-1.33
2022-12-19T18:20:46.873Z,-1.26
2022-12-19T18:23:35.614Z,-1.34
2022-12-19T18:26:23.522Z,-1.31
2022-12-19T18:29:14.787Z,-1.35
2022-12-19T18:32:03.067Z,-1.31
2022-12-19T18:34:53.625Z,-1.34
2022-12-19T18:37:45.352Z,-1.39
2022-12-19T18:40:33.629Z,-1.66
2022-12-19T18:43:22.459Z,-1.37
2022-12-19T18:46:15.059Z,-1.52
2022-12-19T18:49:03.758Z,-1.57
2022-12-19T18:51:54.408Z,-1.64
2022-12-19T18:54:42.284Z,-1.73
2022-12-19T18:57:32.382Z,-1.67
2022-12-19T19:00:26.507Z,-1.87
2022-12-19T19:03:20.303Z,-1.78
2022-12-19T19:06:19.458Z,-1.81
2022-12-19T19:09:16.337Z,-1.85
2022-12-19T19:12:27.100Z,-1.97
2022-12-19T19:15:15.515Z,-1.76
2022-12-19T19:18:07.023Z,-1.79
2022-12-19T19:21:00.676Z,-1.92
2022-12-19T19:24:07.795Z,-2.03
2022-12-19T19:26:55.879Z,-1.99
2022-12-19T19:29:43.565Z,-2.00
2022-12-19T19:32:33.060Z,-2.07
2022-12-19T19:35:22.236Z,-2.02
2022-12-19T19:38:13.530Z,-2.09
2022-12-19T19:41:01.327Z,-2.04
2022-12-19T19:43:48.983Z,-1.97
2022-12-19T19:46:37.777Z,-1.91
2022-12-19T19:49:26.076Z,-2.07
2022-12-19T19:52:13.943Z,-2.09
2022-12-19T19:55:03.957Z,-2.12
2022-12-19T19:57:53.375Z,-2.12
2022-12-19T20:00:41.152Z,-2.15
2022-12-19T20:03:29.188Z,-2.23
2022-12-19T20:06:19.635Z,-2.23
2022-12-19T20:09:07.605Z,-2.45
2022-12-19T20:11:56.427Z,-2.26
2022-12-19T20:14:44.899Z,-2.27
2022-12-19T20:17:32.601Z,-2.44
2022-12-19T20:20:20.360Z,-2.37
2022-12-19T20:23:28.414Z,-2.30
2022-12-19T20:26:17.259Z,-2.40
2022-12-19T20:29:06.746Z,-2.42
2022-12-19T20:31:56.832Z,-2.48
2022-12-19T20:34:45.208Z,-2.53
2022-12-19T20:37:36.376Z,-2.81
2022-12-19T20:40:37.493Z,-2.51
2022-12-19T20:43:25.643Z,-2.50
2022-12-19T20:46:16.007Z,-2.53
2022-12-19T20:49:04.027Z,-2.68
2022-12-19T20:51:52.317Z,-2.62
2022-12-19T20:54:40.374Z,-2.70
2022-12-19T20:57:30.741Z,-2.54
2022-12-19T21:00:19.156Z,-2.69
2022-12-19T21:06:16.688Z,-2.83
2022-12-19T21:09:05.938Z,-2.77
2022-12-19T21:11:53.947Z,-2.56
2022-12-19T21:14:41.638Z,-2.75
2022-12-19T21:17:29.372Z,-2.70
2022-12-19T21:20:17.119Z,-2.65
2022-12-19T21:23:05.438Z,-2.81
2022-12-19T21:25:56.635Z,-3.02
2022-12-19T21:28:45.842Z,-2.77
2022-12-19T21:31:33.599Z,-2.79
2022-12-19T21:34:21.236Z,-2.84
2022-12-19T21:37:09.391Z,-2.76
2022-12-19T21:39:58.137Z,-2.79
2022-12-19T21:42:46.123Z,-2.83
2022-12-19T21:45:33.844Z,-2.83
2022-12-19T21:48:21.445Z,-2.88
2022-12-19T21:51:10.284Z,-2.88
2022-12-19T21:54:03.418Z,-2.90
2022-12-19T21:56:51.506Z,-2.97
2022-12-19T21:59:42.626Z,-2.89
2022-12-19T22:02:30.501Z,-2.82
2022-12-19T22:05:18.353Z,-2.97
2022-12-19T22:08:06.202Z,-2.93
2022-12-19T22:10:55.939Z,-2.96
2022-12-19T22:13:44.985Z,-3.08
2022-12-19T22:16:35.733Z,-2.97
2022-12-19T22:19:23.553Z,-2.98
2022-12-19T22:22:11.238Z,-3.02
2022-12-19T22:24:58.985Z,-3.11
2022-12-19T22:27:46.657Z,-3.09
2022-12-19T22:30:37.435Z,-3.09
2022-12-19T22:33:25.195Z,-3.10
2022-12-19T22:36:15.493Z,-3.07
2022-12-19T22:39:06.915Z,-3.05
2022-12-19T22:41:54.673Z,-3.06
2022-12-19T22:44:42.269Z,-3.11
2022-12-19T22:47:30.067Z,-3.21
2022-12-19T22:50:17.790Z,-3.22
2022-12-19T22:53:11.050Z,-3.29
2022-12-19T22:56:08.003Z,-3.28
2022-12-19T22:58:59.477Z,-3.27
2022-12-19T23:01:47.394Z,-3.36
2022-12-19T23:04:36.237Z,-3.48
2022-12-19T23:07:24.797Z,-3.40
2022-12-19T23:10:12.890Z,-3.60
2022-12-19T23:13:00.593Z,-3.51
2022-12-19T23:15:48.339Z,-3.44
2022-12-19T23:18:36.076Z,-3.65
2022-12-19T23:21:25.439Z,-3.34
2022-12-19T23:24:13.362Z,-3.33
2022-12-19T23:27:01.311Z,-3.51
2022-12-19T23:29:49.978Z,-3.43
2022-12-19T23:32:37.745Z,-3.57
2022-12-19T23:35:25.459Z,-3.39
2022-12-19T23:38:13.147Z,-3.53
2022-12-19T23:41:06.597Z,-3.63
2022-12-19T23:43:55.149Z,-3.69
2022-12-19T23:46:42.778Z,-3.75
2022-12-19T23:49:30.568Z,-3.66
2022-12-19T23:52:18.211Z,-3.82
2022-12-19T23:55:06.768Z,-3.74
2022-12-19T23:57:54.480Z,-3.75
